Wickenby Aerodrome

METAR EGXW TAF EGXW
8 °C
°C
-
°C
29m
Età
00:48:58
LT
23:48
UTC
0 ft

1.000

2.000

3.000

4.000

5.000

OVC 4.100
VFR
<?= Yii::t('app', 'Wind direction') ?> <?= Yii::t('app', 'of'); ?>
240°
07:42
Alba
87%
Umidità
Taglio del vento
Chiuso/Neve
Raggio visivo RWY
Condizione della RWY
Visibilità verticale
Visibilità minima
CAVOK
Tendenza
Correzione
Rapporto speciale
1033 hPa
QNH
METAR EGXW 032320Z AUTO 24007KT 9999 OVC041/// 08/06 Q1033
Copertura totale
4 kt
4 kt
23:00
VFR
12 kt
00:00
VFR
12 kt
01:00
VFR
12 kt
02:00
VFR
12 kt
03:00
VFR
12 kt
04:00
VFR
12 kt
05:00
VFR
12 kt
10 km+
Vista
4.100 ft
Base nuvolosa
7 kt
Vento
metar-taf.com/EGNW

Metar-Taf.com

Decodificatore visivo

Noi e le terze parti seguiamo il tuo comportamento su internet con i cookie. Se continui, riteniamo che tu sia d'accordo con la nostra Politica sui cookie.